Chesapeake — WDD3041 — position and weather

sailwx.info

Track history (hours):
 
Tides and Currents Weather Stations Pressure Air Temp Water Temp Dewpoint Dewpoint Depression Visibility Wind Speed Wind Dir Waves Ship Positions

Chesapeake

Owner: Vane Line Bunkering, Baltimore, MD. More information available from US FCC via Universal Licensing System and Coast Guard Vessel Documentation Center.

Last reported at 2016-Jun-30 13:33 UTC. Time now 2016-Jun-30 14:09 UTC.
Position N 39°48' W 075°25'.

Length 34 m; draft 3 m.

Type: Tug. MMSI: 367123040.

Date/timePositionNaut miles runAvg speedWind from/ knotsBaromVisibWave heightAir tempDewpointWater temp
2016-Jun-30 13:33N 39°48' W 075°25'7 6.7
2016-Jun-30 12:33N 39°51' W 075°18'7 7.5
2016-Jun-30 11:34N 39°53' W 075°08'6 6.1
2016-Jun-30 10:34N 39°59' W 075°05'1 0.5
2016-Jun-30 09:33N 39°59' W 075°05'6 5.6
2016-Jun-30 08:33N 39°53' W 075°08'3 3.2
2016-Jun-30 07:33N 39°54' W 075°12'0 0.0
2016-Jun-30 06:33N 39°54' W 075°12'0 0.0
2016-Jun-30 05:33N 39°54' W 075°12'0 0.0
2016-Jun-30 04:33N 39°54' W 075°12'0 0.0
2016-Jun-30 03:33N 39°54' W 075°12'0 0.0
2016-Jun-30 02:33N 39°54' W 075°12'0 0.0
2016-Jun-30 01:33N 39°54' W 075°12'0 0.0
2016-Jun-30 00:33N 39°54' W 075°12'0 0.0
2016-Jun-29 23:33N 39°54' W 075°12'2 1.6
2016-Jun-29 22:33N 39°52' W 075°13'0 0.0
2016-Jun-29 21:33N 39°52' W 075°13'0 0.0
2016-Jun-29 20:33N 39°52' W 075°13'0 0.1
2016-Jun-29 19:33N 39°52' W 075°13'1 1.5
2016-Jun-29 18:33N 39°53' W 075°12'1 0.6
2016-Jun-29 17:34N 39°54' W 075°12'0 0.0
2016-Jun-29 16:33N 39°54' W 075°12'0 0.0
2016-Jun-29 15:33N 39°54' W 075°12'0 0.0
2016-Jun-29 14:33N 39°54' W 075°12'0 0.0
2016-Jun-29 13:33N 39°54' W 075°12'0 0.0
2016-Jun-29 12:33N 39°54' W 075°12'0 0.0
2016-Jun-29 11:33N 39°54' W 075°12'0 0.0
2016-Jun-29 10:33N 39°54' W 075°12'0 0.0
2016-Jun-29 09:34N 39°54' W 075°12'0 0.0
2016-Jun-29 08:33N 39°54' W 075°12'0 0.0
2016-Jun-29 07:33N 39°54' W 075°12'0 0.0
2016-Jun-29 06:33N 39°54' W 075°12'0 0.0
2016-Jun-29 05:34N 39°54' W 075°12'0 0.0
2016-Jun-29 04:34N 39°54' W 075°12'0 0.0
2016-Jun-29 03:33N 39°54' W 075°12'0 0.1
2016-Jun-29 02:34N 39°54' W 075°12'3 3.0
2016-Jun-29 01:33N 39°54' W 075°08'9 8.8
2016-Jun-29 00:33N 39°51' W 075°19'1111.3
2016-Jun-28 23:33N 39°43' W 075°30'1010.3
2016-Jun-28 22:33N 39°34' W 075°34'10 9.8
2016-Jun-28 21:33N 39°32' W 075°47'9 9.2
2016-Jun-28 20:33N 39°28' W 075°58'1 1.2
2016-Jun-28 19:33N 39°27' W 075°59'0 0.2
2016-Jun-28 18:33N 39°27' W 075°59'0 0.3
2016-Jun-28 17:33N 39°28' W 075°59'7 7.1
2016-Jun-28 16:33N 39°23' W 076°06'10 9.5
2016-Jun-28 15:32N 39°16' W 076°14'9 8.2
2016-Jun-28 14:26N 39°10' W 076°23'9 9.7
2016-Jun-28 13:32N 39°13' W 076°33'2 1.6
2016-Jun-28 12:33N 39°14' W 076°34'0 0.3
2016-Jun-28 11:33N 39°15' W 076°34'0 0.0
2016-Jun-28 10:33N 39°15' W 076°34'0 0.0
2016-Jun-28 09:33N 39°15' W 076°34'0 0.0
2016-Jun-28 08:33N 39°15' W 076°34'0 0.0
2016-Jun-28 07:33N 39°15' W 076°34'0 0.0
2016-Jun-28 06:33N 39°15' W 076°34'0 0.0
2016-Jun-28 04:33N 39°15' W 076°34'0 0.0
2016-Jun-28 03:33N 39°15' W 076°34'1 1.1
2016-Jun-28 02:34N 39°14' W 076°33'2 1.5
2016-Jun-28 01:33N 39°13' W 076°35'7 7.3
2016-Jun-28 00:33N 39°11' W 076°26'8 8.3
2016-Jun-27 23:33N 39°12' W 076°15'1110.4
2016-Jun-27 22:31N 39°22' W 076°08'1010.4
2016-Jun-27 21:33N 39°28' W 075°58'8 8.2
2016-Jun-27 20:33N 39°32' W 075°49'8 7.7
2016-Jun-27 19:33N 39°33' W 075°39'5 5.1
2016-Jun-27 18:33N 39°37' W 075°35'9 9.0
2016-Jun-27 17:33N 39°45' W 075°29'1010.1
2016-Jun-27 16:33N 39°51' W 075°18'5 5.2
2016-Jun-27 15:33N 39°54' W 075°12'1 0.8
2016-Jun-27 14:33N 39°54' W 075°11'1 0.7
2016-Jun-27 13:33N 39°54' W 075°12'0 0.0
2016-Jun-27 12:33N 39°54' W 075°12'0 0.1
2016-Jun-27 11:33N 39°54' W 075°12'0 0.1
2016-Jun-27 10:33N 39°54' W 075°12'0 0.0
2016-Jun-27 09:33N 39°54' W 075°12'0 0.0
2016-Jun-27 08:33N 39°54' W 075°12'0 0.0
2016-Jun-27 07:34N 39°54' W 075°12'0 0.0
2016-Jun-27 06:34N 39°54' W 075°12'0 0.0
2016-Jun-27 05:34N 39°54' W 075°12'0 0.0
2016-Jun-27 04:33N 39°54' W 075°12'0 0.0
2016-Jun-27 03:33N 39°54' W 075°12'0 0.0
2016-Jun-27 02:33N 39°54' W 075°12'0 0.0
2016-Jun-27 01:33N 39°54' W 075°12'0 0.0
2016-Jun-27 00:33N 39°54' W 075°12'0 0.0
2016-Jun-26 23:33N 39°54' W 075°12'0 0.0
2016-Jun-26 22:33N 39°54' W 075°12'0 0.0
2016-Jun-26 21:33N 39°54' W 075°12'0 0.0
2016-Jun-26 20:33N 39°54' W 075°12'0 0.0
2016-Jun-26 19:33N 39°54' W 075°12'0 0.0
2016-Jun-26 18:33N 39°54' W 075°12'0 0.0
2016-Jun-26 17:33N 39°54' W 075°12'0 0.0
2016-Jun-26 16:33N 39°54' W 075°12'0 0.0
2016-Jun-26 15:33N 39°54' W 075°12'0 0.0
2016-Jun-26 14:33N 39°54' W 075°12'0 0.0
2016-Jun-26 13:33N 39°54' W 075°12'0 0.0
2016-Jun-26 12:34N 39°54' W 075°12'0 0.0
2016-Jun-26 11:34N 39°54' W 075°12'0 0.0
2016-Jun-26 10:34N 39°54' W 075°12'0 0.0
2016-Jun-26 09:34N 39°54' W 075°12'0 0.0
2016-Jun-26 08:34N 39°54' W 075°12'0 0.0
2016-Jun-26 07:34N 39°54' W 075°12'0 0.0
2016-Jun-26 06:34N 39°54' W 075°12'1 0.8
2016-Jun-26 05:34N 39°53' W 075°12'9 8.9
2016-Jun-26 04:34N 39°50' W 075°23'9 9.3
2016-Jun-26 03:33N 39°43' W 075°31'8 7.8
2016-Jun-26 02:33N 39°35' W 075°33'9 8.9
2016-Jun-26 01:34N 39°32' W 075°44'1010.1
2016-Jun-26 00:33N 39°29' W 075°57'1010.2
2016-Jun-25 23:33N 39°22' W 076°07'10 9.1
2016-Jun-25 22:26N 39°14' W 076°14'15 7.9
2016-Jun-25 20:33N 39°16' W 076°33'0 0.0
2016-Jun-25 19:34N 39°16' W 076°33'0 0.0
2016-Jun-25 18:30N 39°15' W 076°33'0 0.0
2016-Jun-25 17:33N 39°15' W 076°33'0 0.0
2016-Jun-25 16:32N 39°15' W 076°33'0 0.0
2016-Jun-25 15:31N 39°15' W 076°33'0 0.0
2016-Jun-25 14:33N 39°15' W 076°33'0 0.1
2016-Jun-25 13:34N 39°16' W 076°33'0 0.0
2016-Jun-25 12:34N 39°16' W 076°33'0 0.0
2016-Jun-25 11:33N 39°15' W 076°33'0 0.0
2016-Jun-25 10:34N 39°15' W 076°33'0 0.0
2016-Jun-25 09:33N 39°15' W 076°33'0 0.0
2016-Jun-25 08:33N 39°15' W 076°33'0 0.0
2016-Jun-25 07:34N 39°15' W 076°33'0 0.0
2016-Jun-25 06:33N 39°15' W 076°33'0 0.0
2016-Jun-25 05:33N 39°15' W 076°33'8 8.2
2016-Jun-25 04:33N 39°10' W 076°25'1111.2
2016-Jun-25 03:34N 38°59' W 076°23'4911.2
2016-Jun-24 23:12N 38°10' W 076°16'811.7
2016-Jun-24 22:33N 38°03' W 076°14'7010.0
2016-Jun-24 15:33N 36°53' W 076°20'4 3.9
2016-Jun-24 14:33N 36°50' W 076°17'0 0.0
2016-Jun-24 13:33N 36°50' W 076°17'0 0.0
2016-Jun-24 12:33N 36°50' W 076°17'0 0.0
2016-Jun-24 11:33N 36°50' W 076°17'0 0.0
2016-Jun-24 10:33N 36°50' W 076°17'0 0.0
2016-Jun-24 09:33N 36°50' W 076°17'0 0.0
2016-Jun-24 08:33N 36°50' W 076°17'0 0.0
2016-Jun-24 07:33N 36°50' W 076°17'0 0.0
2016-Jun-24 06:33N 36°50' W 076°17'  
Track history (hours):
 
Tides and Currents Weather Stations Pressure Air Temp Water Temp Dewpoint Dewpoint Depression Visibility Wind Speed Wind Dir Waves Ship Positions

Chesapeake

Owner: Vane Line Bunkering, Baltimore, MD. More information available from US FCC via Universal Licensing System and Coast Guard Vessel Documentation Center.

Last reported at 2016-Jun-30 13:33 UTC. Time now 2016-Jun-30 14:09 UTC.
Position N 39°48' W 075°25'.

Length 34 m; draft 3 m.

Type: Tug. MMSI: 367123040.

Date/timePositionNaut miles runAvg speedWind from/ knotsBaromVisibWave heightAir tempDewpointWater temp
2016-Jun-30 13:33N 39°48' W 075°25'7 6.7
2016-Jun-30 12:33N 39°51' W 075°18'7 7.5
2016-Jun-30 11:34N 39°53' W 075°08'6 6.1
2016-Jun-30 10:34N 39°59' W 075°05'1 0.5
2016-Jun-30 09:33N 39°59' W 075°05'6 5.6
2016-Jun-30 08:33N 39°53' W 075°08'3 3.2
2016-Jun-30 07:33N 39°54' W 075°12'0 0.0
2016-Jun-30 06:33N 39°54' W 075°12'0 0.0
2016-Jun-30 05:33N 39°54' W 075°12'0 0.0
2016-Jun-30 04:33N 39°54' W 075°12'0 0.0
2016-Jun-30 03:33N 39°54' W 075°12'0 0.0
2016-Jun-30 02:33N 39°54' W 075°12'0 0.0
2016-Jun-30 01:33N 39°54' W 075°12'0 0.0
2016-Jun-30 00:33N 39°54' W 075°12'0 0.0
2016-Jun-29 23:33N 39°54' W 075°12'2 1.6
2016-Jun-29 22:33N 39°52' W 075°13'0 0.0
2016-Jun-29 21:33N 39°52' W 075°13'0 0.0
2016-Jun-29 20:33N 39°52' W 075°13'0 0.1
2016-Jun-29 19:33N 39°52' W 075°13'1 1.5
2016-Jun-29 18:33N 39°53' W 075°12'1 0.6
2016-Jun-29 17:34N 39°54' W 075°12'0 0.0
2016-Jun-29 16:33N 39°54' W 075°12'0 0.0
2016-Jun-29 15:33N 39°54' W 075°12'0 0.0
2016-Jun-29 14:33N 39°54' W 075°12'0 0.0
2016-Jun-29 13:33N 39°54' W 075°12'0 0.0
2016-Jun-29 12:33N 39°54' W 075°12'0 0.0
2016-Jun-29 11:33N 39°54' W 075°12'0 0.0
2016-Jun-29 10:33N 39°54' W 075°12'0 0.0
2016-Jun-29 09:34N 39°54' W 075°12'0 0.0
2016-Jun-29 08:33N 39°54' W 075°12'0 0.0
2016-Jun-29 07:33N 39°54' W 075°12'0 0.0
2016-Jun-29 06:33N 39°54' W 075°12'0 0.0
2016-Jun-29 05:34N 39°54' W 075°12'0 0.0
2016-Jun-29 04:34N 39°54' W 075°12'0 0.0
2016-Jun-29 03:33N 39°54' W 075°12'0 0.1
2016-Jun-29 02:34N 39°54' W 075°12'3 3.0
2016-Jun-29 01:33N 39°54' W 075°08'9 8.8
2016-Jun-29 00:33N 39°51' W 075°19'1111.3
2016-Jun-28 23:33N 39°43' W 075°30'1010.3
2016-Jun-28 22:33N 39°34' W 075°34'10 9.8
2016-Jun-28 21:33N 39°32' W 075°47'9 9.2
2016-Jun-28 20:33N 39°28' W 075°58'1 1.2
2016-Jun-28 19:33N 39°27' W 075°59'0 0.2
2016-Jun-28 18:33N 39°27' W 075°59'0 0.3
2016-Jun-28 17:33N 39°28' W 075°59'7 7.1
2016-Jun-28 16:33N 39°23' W 076°06'10 9.5
2016-Jun-28 15:32N 39°16' W 076°14'9 8.2
2016-Jun-28 14:26N 39°10' W 076°23'9 9.7
2016-Jun-28 13:32N 39°13' W 076°33'2 1.6
2016-Jun-28 12:33N 39°14' W 076°34'0 0.3
2016-Jun-28 11:33N 39°15' W 076°34'0 0.0
2016-Jun-28 10:33N 39°15' W 076°34'0 0.0
2016-Jun-28 09:33N 39°15' W 076°34'0 0.0
2016-Jun-28 08:33N 39°15' W 076°34'0 0.0
2016-Jun-28 07:33N 39°15' W 076°34'0 0.0
2016-Jun-28 06:33N 39°15' W 076°34'0 0.0
2016-Jun-28 04:33N 39°15' W 076°34'0 0.0
2016-Jun-28 03:33N 39°15' W 076°34'1 1.1
2016-Jun-28 02:34N 39°14' W 076°33'2 1.5
2016-Jun-28 01:33N 39°13' W 076°35'7 7.3
2016-Jun-28 00:33N 39°11' W 076°26'8 8.3
2016-Jun-27 23:33N 39°12' W 076°15'1110.4
2016-Jun-27 22:31N 39°22' W 076°08'1010.4
2016-Jun-27 21:33N 39°28' W 075°58'8 8.2
2016-Jun-27 20:33N 39°32' W 075°49'8 7.7
2016-Jun-27 19:33N 39°33' W 075°39'5 5.1
2016-Jun-27 18:33N 39°37' W 075°35'9 9.0
2016-Jun-27 17:33N 39°45' W 075°29'1010.1
2016-Jun-27 16:33N 39°51' W 075°18'5 5.2
2016-Jun-27 15:33N 39°54' W 075°12'1 0.8
2016-Jun-27 14:33N 39°54' W 075°11'1 0.7
2016-Jun-27 13:33N 39°54' W 075°12'0 0.0
2016-Jun-27 12:33N 39°54' W 075°12'0 0.1
2016-Jun-27 11:33N 39°54' W 075°12'0 0.1
2016-Jun-27 10:33N 39°54' W 075°12'0 0.0
2016-Jun-27 09:33N 39°54' W 075°12'0 0.0
2016-Jun-27 08:33N 39°54' W 075°12'0 0.0
2016-Jun-27 07:34N 39°54' W 075°12'0 0.0
2016-Jun-27 06:34N 39°54' W 075°12'0 0.0
2016-Jun-27 05:34N 39°54' W 075°12'0 0.0
2016-Jun-27 04:33N 39°54' W 075°12'0 0.0
2016-Jun-27 03:33N 39°54' W 075°12'0 0.0
2016-Jun-27 02:33N 39°54' W 075°12'0 0.0
2016-Jun-27 01:33N 39°54' W 075°12'0 0.0
2016-Jun-27 00:33N 39°54' W 075°12'0 0.0
2016-Jun-26 23:33N 39°54' W 075°12'0 0.0
2016-Jun-26 22:33N 39°54' W 075°12'0 0.0
2016-Jun-26 21:33N 39°54' W 075°12'0 0.0
2016-Jun-26 20:33N 39°54' W 075°12'0 0.0
2016-Jun-26 19:33N 39°54' W 075°12'0 0.0
2016-Jun-26 18:33N 39°54' W 075°12'0 0.0
2016-Jun-26 17:33N 39°54' W 075°12'0 0.0
2016-Jun-26 16:33N 39°54' W 075°12'0 0.0
2016-Jun-26 15:33N 39°54' W 075°12'0 0.0
2016-Jun-26 14:33N 39°54' W 075°12'0 0.0
2016-Jun-26 13:33N 39°54' W 075°12'0 0.0
2016-Jun-26 12:34N 39°54' W 075°12'0 0.0
2016-Jun-26 11:34N 39°54' W 075°12'0 0.0
2016-Jun-26 10:34N 39°54' W 075°12'0 0.0
2016-Jun-26 09:34N 39°54' W 075°12'0 0.0
2016-Jun-26 08:34N 39°54' W 075°12'0 0.0
2016-Jun-26 07:34N 39°54' W 075°12'0 0.0
2016-Jun-26 06:34N 39°54' W 075°12'1 0.8
2016-Jun-26 05:34N 39°53' W 075°12'9 8.9
2016-Jun-26 04:34N 39°50' W 075°23'9 9.3
2016-Jun-26 03:33N 39°43' W 075°31'8 7.8
2016-Jun-26 02:33N 39°35' W 075°33'9 8.9
2016-Jun-26 01:34N 39°32' W 075°44'1010.1
2016-Jun-26 00:33N 39°29' W 075°57'1010.2
2016-Jun-25 23:33N 39°22' W 076°07'10 9.1
2016-Jun-25 22:26N 39°14' W 076°14'15 7.9
2016-Jun-25 20:33N 39°16' W 076°33'0 0.0
2016-Jun-25 19:34N 39°16' W 076°33'0 0.0
2016-Jun-25 18:30N 39°15' W 076°33'0 0.0
2016-Jun-25 17:33N 39°15' W 076°33'0 0.0
2016-Jun-25 16:32N 39°15' W 076°33'0 0.0
2016-Jun-25 15:31N 39°15' W 076°33'0 0.0
2016-Jun-25 14:33N 39°15' W 076°33'0 0.1
2016-Jun-25 13:34N 39°16' W 076°33'0 0.0
2016-Jun-25 12:34N 39°16' W 076°33'0 0.0
2016-Jun-25 11:33N 39°15' W 076°33'0 0.0
2016-Jun-25 10:34N 39°15' W 076°33'0 0.0
2016-Jun-25 09:33N 39°15' W 076°33'0 0.0
2016-Jun-25 08:33N 39°15' W 076°33'0 0.0
2016-Jun-25 07:34N 39°15' W 076°33'0 0.0
2016-Jun-25 06:33N 39°15' W 076°33'0 0.0
2016-Jun-25 05:33N 39°15' W 076°33'8 8.2
2016-Jun-25 04:33N 39°10' W 076°25'1111.2
2016-Jun-25 03:34N 38°59' W 076°23'4911.2
2016-Jun-24 23:12N 38°10' W 076°16'811.7
2016-Jun-24 22:33N 38°03' W 076°14'7010.0
2016-Jun-24 15:33N 36°53' W 076°20'4 3.9
2016-Jun-24 14:33N 36°50' W 076°17'0 0.0
2016-Jun-24 13:33N 36°50' W 076°17'0 0.0
2016-Jun-24 12:33N 36°50' W 076°17'0 0.0
2016-Jun-24 11:33N 36°50' W 076°17'0 0.0
2016-Jun-24 10:33N 36°50' W 076°17'0 0.0
2016-Jun-24 09:33N 36°50' W 076°17'0 0.0
2016-Jun-24 08:33N 36°50' W 076°17'0 0.0
2016-Jun-24 07:33N 36°50' W 076°17'0 0.0
2016-Jun-24 06:33N 36°50' W 076°17'  

Dump ship's entire track history